Home > Products > Valid Products > TAF

000
FTUS43 KJKL 160100 AAA
TAFSME
TAF AMD
KSME 160146Z 1602/1624 VRB05KT P6SM SCT050
     FM160600 VRB04KT P6SM SKC=



000
FTUS43 KJKL 152300
TAFJKL
TAF
KJKL 152323Z 1600/1624 VRB04KT P6SM BKN050
     FM160400 VRB05KT P6SM SCT050
     FM160800 VRB03KT P6SM SKC=



000
FTUS43 KJKL 152300
TAFLOZ
TAF
KLOZ 152323Z 1600/1624 33008KT P6SM BKN040
     FM160300 VRB05KT P6SM SCT050
     FM160700 VRB03KT P6SM SKC=



000
FTUS43 KJKL 152300
TAFSME
TAF
KSME 152323Z 1600/1624 34007G15KT P6SM BKN050
     FM160300 VRB05KT P6SM SCT050
     FM160600 VRB04KT P6SM SKC=



000
FTUS43 KJKL 152000 AAA
TAFSME
TAF AMD
KSME 152044Z 1521/1618 34010G18KT P6SM SCT025 OVC050
     FM152300 VRB04KT P6SM BKN040
     FM160200 VRB03KT P6SM SKC=



000
FTUS43 KJKL 152000 AAC
TAFLOZ
TAF AMD
KLOZ 152043Z 1521/1618 33008KT P6SM SCT025 OVC035
     FM160000 VRB04KT P6SM BKN040
     FM160200 VRB03KT P6SM SKC=



000
FTUS43 KJKL 152000 AAB
TAFJKL
TAF AMD
KJKL 152041Z 1521/1618 32005KT P6SM SCT030 BKN040
     FM152100 30010G18KT P6SM SCT018 OVC035
     FM152300 VRB04KT P6SM BKN040
     FM160300 VRB03KT P6SM SKC=



000
FTUS43 KJKL 151800 AAA
TAFJKL
TAF AMD
KJKL 151849Z 1519/1618 32005KT P6SM FEW024 BKN030 OVC035
     FM152100 30010G18KT P6SM SCT018 OVC035
     FM152300 VRB04KT P6SM BKN040
     FM160300 VRB03KT P6SM SKC=



000
FTUS43 KJKL 151800 AAB
TAFLOZ
TAF AMD
KLOZ 151813Z 1518/1618 34009KT P6SM VCSH BKN019 BKN028 OVC040
     FM152000 30010G18KT P6SM SCT018 OVC035
     FM160000 VRB04KT P6SM BKN040
     FM160200 VRB03KT P6SM SKC=



000
FTUS43 KJKL 151700 AAA
TAFLOZ
TAF AMD
KLOZ 151759Z 1518/1618 33006KT P6SM FEW017 BKN030 OVC040
     FM152000 30010G18KT P6SM SCT018 OVC035
     FM160000 VRB04KT P6SM BKN040
     FM160200 VRB03KT P6SM SKC=



000
FTUS43 KJKL 151700
TAFJKL
TAF
KJKL 151723Z 1518/1618 VRB04KT P6SM SCT008 BKN013 OVC045
     FM152100 30010G18KT P6SM SCT018 OVC035
     FM152300 VRB04KT P6SM BKN040
     FM160300 VRB03KT P6SM SKC=



000
FTUS43 KJKL 151700
TAFLOZ
TAF
KLOZ 151723Z 1518/1618 34007KT P6SM BKN016 BKN023 OVC110
     FM152000 30010G18KT P6SM SCT018 OVC035
     FM160000 VRB04KT P6SM BKN040
     FM160200 VRB03KT P6SM SKC=



000
FTUS43 KJKL 151700
TAFSME
TAF
KSME 151723Z 1518/1618 01008KT P6SM OVC020
     FM152000 30010G18KT P6SM SCT018 OVC035
     FM152300 VRB04KT P6SM BKN040
     FM160200 VRB03KT P6SM SKC=



000
FTUS43 KJKL 151600 AAF
TAFLOZ
TAF AMD
KLOZ 151622Z 1516/1612 36008KT P6SM FEW016 BKN035 OVC100
     FM151700 30010G21KT P6SM SCT010 OVC016
     FM152000 30010G18KT P6SM SCT018 OVC035
     FM152300 VRB04KT P6SM BKN040
     FM160400 VRB03KT P6SM SKC=



000
FTUS43 KJKL 151600 AAF
TAFSME
TAF AMD
KSME 151621Z 1516/1612 02006KT P6SM SCT016 OVC023
     FM151700 30010G24KT P6SM SCT010 OVC016
     FM152000 30010G18KT P6SM SCT018 OVC035
     FM152300 VRB04KT P6SM BKN040
     FM160300 VRB03KT P6SM SKC=



000
FTUS43 KJKL 151600 AAI
TAFJKL
TAF AMD
KJKL 151620Z 1516/1612 29007KT 1SM -SN BR BKN005 OVC011
     FM151700 30010G20KT P6SM SCT010 OVC016
     FM152100 30010G18KT P6SM SCT018 OVC035
     FM152300 VRB04KT P6SM BKN040
     FM160400 VRB03KT P6SM SKC=



000
FTUS43 KJKL 151500 AAE
TAFLOZ
TAF AMD
KLOZ 151557Z 1516/1612 36007KT 6SM -SN BR SCT014 BKN023 OVC035
     FM151700 30010G21KT P6SM SCT010 OVC016
     FM152000 30010G18KT P6SM SCT018 OVC035
     FM152300 VRB04KT P6SM BKN040
     FM160400 VRB03KT P6SM SKC=



000
FTUS43 KJKL 151500 AAH
TAFJKL
TAF AMD
KJKL 151547Z 1516/1612 VRB04KT 3/4SM -SN BR BKN005 BKN009 OVC014
     FM151700 30010G20KT P6SM SCT010 OVC016
     FM152100 30010G18KT P6SM SCT018 OVC035
     FM152300 VRB04KT P6SM BKN040
     FM160400 VRB03KT P6SM SKC=



000
FTUS43 KJKL 151500 AAD
TAFLOZ
TAF AMD
KLOZ 151541Z 1516/1612 32008G16KT 3SM -SN BR SCT008 BKN021 OVC030
     FM151700 30010G21KT P6SM SCT010 OVC016
     FM152000 30010G18KT P6SM SCT018 OVC035
     FM152300 VRB04KT P6SM BKN040
     FM160400 VRB03KT P6SM SKC=



000
FTUS43 KJKL 151500 AAG
TAFJKL
TAF AMD
KJKL 151541Z 1516/1612 30004KT 1 1/2SM -SN BR BKN005 BKN020 OVC035
     FM151700 30010G20KT P6SM SCT010 OVC016
     FM152100 30010G18KT P6SM SCT018 OVC035
     FM152300 VRB04KT P6SM BKN040
     FM160400 VRB03KT P6SM SKC=



000
FTUS43 KJKL 151500 AAC
TAFLOZ
TAF AMD
KLOZ 151525Z 1515/1612 34007G16KT 2SM -SN BR BKN008 OVC013
     FM151700 30010G21KT P6SM SCT010 OVC016
     FM152000 30010G18KT P6SM SCT018 OVC035
     FM152300 VRB04KT P6SM BKN040
     FM160400 VRB03KT P6SM SKC=



000
FTUS43 KJKL 151400 AAB
TAFLOZ
TAF AMD
KLOZ 151446Z 1515/1612 30005KT 1SM -SN BR FEW005 OVC010
     FM151700 30010G21KT P6SM SCT010 OVC016
     FM152000 30010G18KT P6SM SCT018 OVC035
     FM152300 VRB04KT P6SM BKN040
     FM160400 VRB03KT P6SM SKC=



000
FTUS43 KJKL 151400 AAF
TAFJKL
TAF AMD
KJKL 151446Z 1515/1612 VRB05KT 3/4SM -SN BR BKN006 BKN010 OVC019
     FM151700 30010G20KT P6SM SCT010 OVC016
     FM152100 30010G18KT P6SM SCT018 OVC035
     FM152300 VRB04KT P6SM BKN040
     FM160400 VRB03KT P6SM SKC=



000
FTUS43 KJKL 151400 AAE
TAFJKL
TAF AMD
KJKL 151430Z 1515/1612 34008KT 1SM -SN BR BKN006 OVC010
     FM151700 30010G20KT P6SM SCT010 OVC016
     FM152100 30010G18KT P6SM SCT018 OVC035
     FM152300 VRB04KT P6SM BKN040
     FM160400 VRB03KT P6SM SKC=



000
FTUS43 KJKL 151300 AAE
TAFSME
TAF AMD
KSME 151328Z 1513/1612 35009KT P6SM -SN OVC011
     FM151700 30010G24KT P6SM SCT010 OVC016
     FM152000 30010G18KT P6SM SCT018 OVC035
     FM152300 VRB04KT P6SM BKN040
     FM160300 VRB03KT P6SM SKC=



000
FTUS43 KJKL 151300 AAD
TAFJKL
TAF AMD
KJKL 151312Z 1513/1612 VRB06G15KT 3/4SM -SN BR BKN005 OVC010
     FM151700 30010G20KT P6SM SCT010 OVC016
     FM152100 30010G18KT P6SM SCT018 OVC035
     FM152300 VRB04KT P6SM BKN040
     FM160400 VRB03KT P6SM SKC=



000
FTUS43 KJKL 151200 AAA
TAFLOZ
TAF AMD
KLOZ 151255Z 1513/1612 34007KT 1/2SM SN FG FEW008 OVC014
     FM151700 30010G21KT P6SM SCT010 OVC016
     FM152000 30010G18KT P6SM SCT018 OVC035
     FM152300 VRB04KT P6SM BKN040
     FM160400 VRB03KT P6SM SKC=



000
FTUS43 KJKL 151200 AAC
TAFJKL
TAF AMD
KJKL 151241Z 1513/1612 33010G17KT 1 1/2SM -SN BR BKN005 OVC009
     FM151700 30010G20KT P6SM SCT010 OVC016
     FM152100 30010G18KT P6SM SCT018 OVC035
     FM152300 VRB04KT P6SM BKN040
     FM160400 VRB03KT P6SM SKC=



000
FTUS43 KJKL 151200 AAD
TAFSME
TAF AMD
KSME 151241Z 1513/1612 33006KT 1SM -SN OVC007
     FM151700 30010G24KT P6SM SCT010 OVC016
     FM152000 30010G18KT P6SM SCT018 OVC035
     FM152300 VRB04KT P6SM BKN040
     FM160300 VRB03KT P6SM SKC=



000
FTUS43 KJKL 151200 AAB
TAFJKL
TAF AMD
KJKL 151214Z 1512/1612 VRB04KT 1 1/2SM -RA BR BKN005 OVC009
      TEMPO 1512/1513 1/4SM -DZ FG BKN003 OVC008
     FM151700 30010G20KT P6SM SCT010 OVC016
     FM152100 30010G18KT P6SM SCT018 OVC035
     FM152300 VRB04KT P6SM BKN040
     FM160400 VRB03KT P6SM SKC=



000
FTUS43 KJKL 151200 AAC
TAFSME
TAF AMD
KSME 151210Z 1512/1612 34006KT 1SM -SN OVC007
      TEMPO 1512/1514 BKN004 OVC008
     FM151700 30010G24KT P6SM SCT010 OVC016
     FM152000 30010G18KT P6SM SCT018 OVC035
     FM152300 VRB04KT P6SM BKN040
     FM160300 VRB03KT P6SM SKC=



000
FTUS43 KJKL 151200 AAB
TAFSME
TAF AMD
KSME 151208Z 1512/1612 34006KT 1SM -SN OVC007
      TEMPO 1512/1514 BKN004 OVC008
     FM151700 30010G24KT P6SM SCT010 OVC016
     FM152000 30010G18KT P6SM SCT018 OVC035
     FM152300 VRB04KT P6SM BKN040
     FM160300 VRB03KT P6SM SKC=



000
FTUS43 KJKL 151100 AAA
TAFSME
TAF AMD
KSME 151153Z 1512/1612 33009G15KT 1SM -SN BR OVC008
      TEMPO 1512/1514 BKN004 OVC008
     FM151700 30010G24KT P6SM SCT010 OVC016
     FM152000 30010G18KT P6SM SCT018 OVC035
     FM152300 VRB04KT P6SM BKN040
     FM160300 VRB03KT P6SM SKC=



000
FTUS43 KJKL 151100 AAA
TAFJKL
TAF AMD
KJKL 151152Z 1512/1612 31009G15KT 1 1/2SM -SN OVC008
      TEMPO 1512/1513 1/4SM -DZ FG BKN003 OVC008
     FM151700 30010G20KT P6SM SCT010 OVC016
     FM152100 30010G18KT P6SM SCT018 OVC035
     FM152300 VRB04KT P6SM BKN040
     FM160400 VRB03KT P6SM SKC=



000
FTUS43 KJKL 151100
TAFLOZ
TAF
KLOZ 151120Z 1512/1612 32009G15KT 1 1/2SM -SN BKN008
     FM151700 30010G21KT P6SM SCT010 OVC016
     FM152000 30010G18KT P6SM SCT018 OVC035
     FM152300 VRB04KT P6SM BKN040
     FM160400 VRB03KT P6SM SKC=



000
FTUS43 KJKL 151100
TAFJKL
TAF
KJKL 151120Z 1512/1612 31009G15KT 1 1/2SM -SN BKN008
     FM151700 30010G20KT P6SM SCT010 OVC016
     FM152100 30010G18KT P6SM SCT018 OVC035
     FM152300 VRB04KT P6SM BKN040
     FM160400 VRB03KT P6SM SKC=



000
FTUS43 KJKL 151100
TAFSME
TAF
KSME 151120Z 1512/1612 33009G15KT 1 1/2SM -SN BKN008
     FM151700 30010G24KT P6SM SCT010 OVC016
     FM152000 30010G18KT P6SM SCT018 OVC035
     FM152300 VRB04KT P6SM BKN040
     FM160300 VRB03KT P6SM SKC=



000
FTUS43 KJKL 150500
TAFLOZ
TAF
KLOZ 150526Z 1506/1606 30010G18KT P6SM -SHRA BKN006 OVC014
     FM151000 31010G18KT 4SM -RASN BR OVC008
     FM151200 33008KT 1 1/2SM -SN OVC006
     FM151400 31008KT P6SM OVC008
     FM151700 30010G20KT P6SM SCT012 OVC018
     FM152000 30010G18KT P6SM SCT022 OVC035
     FM152300 VRB04KT P6SM BKN035=



000
FTUS43 KJKL 150500
TAFJKL
TAF
KJKL 150526Z 1506/1606 29008G16KT P6SM -SHRA BKN006 OVC012
     FM151000 31010G18KT 4SM -RASN BR OVC008
     FM151200 33008KT 1 1/2SM -SN OVC006
     FM151500 31008KT 5SM -SHSN OVC008
     FM151700 30010G20KT P6SM SCT012 OVC018
     FM152000 30010G18KT P6SM SCT022 OVC035
     FM152300 VRB04KT P6SM BKN035=



000
FTUS43 KJKL 150500
TAFSME
TAF
KSME 150526Z 1506/1606 30009G18KT P6SM -SHRA BKN007 OVC014
     FM151000 31010G18KT 4SM -RASN BR OVC008
     FM151200 33008KT 1 1/2SM -SN OVC006
     FM151400 31008KT P6SM OVC008
     FM151700 30010G20KT P6SM SCT012 OVC018
     FM152000 30010G18KT P6SM SCT022 OVC035
     FM152300 VRB04KT P6SM BKN035=



000
FTUS43 KJKL 142300
TAFSME
TAF
KSME 142340Z 1500/1524 20009G15KT P6SM BKN040
     FM150300 24007G15KT P6SM -SHRA VCTS SCT025CB BKN040
     FM151000 31010G18KT 4SM -RASN BR SCT008 OVC015
     FM151400 33008KT P6SM SCT025 BKN050=



000
FTUS43 KJKL 142300
TAFLOZ
TAF
KLOZ 142340Z 1500/1524 21007G15KT P6SM SCT040 OVC080
     FM150400 24007G14KT P6SM -SHRA VCTS SCT025CB BKN040
     FM151100 31009G16KT 4SM -RASN BR SCT008 OVC015
     FM151500 33007KT P6SM SCT025 BKN050=



000
FTUS43 KJKL 142300
TAFJKL
TAF
KJKL 142340Z 1500/1524 21007KT P6SM SCT040 OVC080
     FM150500 24009G15KT P6SM -SHRA VCTS SCT025CB BKN040
     FM151200 31010G18KT 4SM -RASN BR SCT008 OVC015
     FM151600 33008KT P6SM SCT025 BKN050=



000
FTUS43 KJKL 142000 AAA
TAFLOZ
TAF AMD
KLOZ 142007Z 1420/1518 22012G24KT P6SM SCT035 OVC080
     FM150500 22010KT P6SM -SHRA VCTS OVC030CB
     FM151200 29010KT 5SM -RASN OVC012=



000
FTUS43 KJKL 142000 AAA
TAFJKL
TAF AMD
KJKL 142007Z 1420/1518 20009G18KT P6SM BKN040 OVC080
     FM142300 19008KT P6SM OVC080
     FM150530 21009KT P6SM -SHRA VCTS OVC025CB
     FM151300 30010KT 5SM -RASN OVC010=



000
FTUS43 KJKL 141700
TAFJKL
TAF
KJKL 141726Z 1418/1518 VRB06G16KT P6SM BKN030 BKN080 OVC090
     FM142300 19008KT P6SM OVC080
     FM150530 21009KT P6SM -SHRA VCTS OVC025CB
     FM151300 30010KT 5SM -RASN OVC010=



000
FTUS43 KJKL 141700
TAFLOZ
TAF
KLOZ 141726Z 1418/1518 21010KT P6SM BKN035 BKN045 OVC080
     FM150500 22010KT P6SM -SHRA VCTS OVC030CB
     FM151200 29010KT 5SM -RASN OVC012=



000
FTUS43 KJKL 141700
TAFSME
TAF
KSME 141726Z 1418/1518 22010G22KT P6SM SCT050 SCT070
     FM142300 19010G18KT P6SM OVC050
     FM150400 22009KT P6SM -SHRA VCTS OVC030CB
     FM151100 29010KT 5SM -RASN OVC012=



000
FTUS43 KJKL 140500
TAFSME
TAF
KSME 140536Z 1406/1506 21010G18KT P6SM BKN200 WS015/20045KT
     FM141200 20016G25KT P6SM -SHRA OVC060
     FM141600 21017G33KT P6SM OVC050
     FM142300 19010G18KT P6SM OVC080=



000
FTUS43 KJKL 140500
TAFJKL
TAF
KJKL 140536Z 1406/1506 18005KT P6SM BKN200 WS015/20045KT
     FM141500 20010G22KT P6SM -SHRA OVC060
     FM141800 21013G25KT P6SM OVC050
     FM142300 19008KT P6SM OVC080=



000
FTUS43 KJKL 140500
TAFLOZ
TAF
KLOZ 140536Z 1406/1506 21013G21KT P6SM BKN200 WS015/20045KT
     FM141300 20015G23KT P6SM -SHRA OVC060
     FM141700 21017G30KT P6SM OVC050
     FM142300 19010G18KT P6SM OVC080=



000
FTUS43 KJKL 140200 AAA
TAFLOZ
TAF AMD
KLOZ 140232Z 1403/1424 21007KT P6SM FEW050 BKN200 WS020/20040KT
     FM141400 20010G20KT P6SM VCSH OVC050
     FM142100 22014G26KT 5SM -SHRA VCTS SCT025CB BKN040=



000
FTUS43 KJKL 132300
TAFLOZ
TAF
KLOZ 132327Z 1400/1424 21007G15KT P6SM FEW050 BKN200 WS020/20040KT
     FM141400 20010G20KT P6SM VCSH OVC050
     FM142100 22014G26KT 5SM -SHRA VCTS SCT025CB BKN040=



000
FTUS43 KJKL 132300
TAFJKL
TAF
KJKL 132327Z 1400/1424 19008KT P6SM FEW050 BKN200 WS015/20040KT
     FM141400 20010G19KT P6SM VCSH OVC050
     FM142100 22013G25KT 5SM -SHRA VCTS SCT025CB BKN040=



000
FTUS43 KJKL 132300
TAFSME
TAF
KSME 132327Z 1400/1424 21008G16KT P6SM FEW050 BKN200 WS020/20040KT
     FM141300 20012G21KT P6SM VCSH OVC050
     FM142000 22015G27KT 5SM -SHRA VCTS SCT025CB BKN040=



000
FTUS43 KJKL 131700
TAFSME
TAF
KSME 131731Z 1318/1418 22014G22KT P6SM BKN250
     FM140000 19008KT P6SM SCT050 BKN200 WS015/20040KT
     FM141400 20013G22KT P6SM VCSH OVC050=



000
FTUS43 KJKL 131700
TAFJKL
TAF
KJKL 131731Z 1318/1418 20007G19KT P6SM BKN250
     FM140000 19008KT P6SM FEW050 BKN200 WS010/20040KT
     FM141400 20010G19KT P6SM VCSH OVC050=



000
FTUS43 KJKL 131700
TAFLOZ
TAF
KLOZ 131731Z 1318/1418 20014G23KT P6SM BKN250
     FM140000 19008KT P6SM SCT100 BKN200 WS012/20040KT
     FM141400 21013G22KT P6SM VCSH OVC050=



000
FTUS43 KJKL 131100 RRA
TAFJKL
TAF
KJKL 131141Z 1312/1412 20005KT P6SM FEW250 WS020/22040KT
     FM131400 21009G18KT P6SM FEW250
     FM140000 19008KT P6SM SCT200 WS020/22040KT=



000
FTUS43 KJKL 131100 RRA
TAFSME
TAF
KSME 131141Z 1312/1412 19005KT P6SM FEW250 WS020/22040KT
     FM131400 21016G24KT P6SM FEW250
     FM140000 19008KT P6SM SCT200 WS020/22040KT=



000
FTUS43 KJKL 131100 RRA
TAFLOZ
TAF
KLOZ 131141Z 1312/1412 18005KT P6SM FEW250 WS020/22040KT
     FM131400 21014G22KT P6SM FEW250
     FM140000 19008KT P6SM SCT200 WS020/22040KT=



000
FTUS43 KJKL 130500 RRA
TAFSME
TAF
KSME 130546Z 1306/1406 19005KT P6SM FEW250 WS020/22040KT
     FM131400 21016G26KT P6SM FEW250
     FM140000 19008KT P6SM SCT200 WS020/22040KT=



000
FTUS43 KJKL 130500 RRA
TAFJKL
TAF
KJKL 130546Z 1306/1406 20005KT P6SM FEW250 WS020/22040KT
     FM131400 21009G18KT P6SM FEW250
     FM140000 19008KT P6SM SCT200 WS020/22040KT=



000
FTUS43 KJKL 130500 RRA
TAFLOZ
TAF
KLOZ 130546Z 1306/1406 18005KT P6SM FEW250 WS020/22040KT
     FM131400 21014G24KT P6SM FEW250
     FM140000 19008KT P6SM SCT200 WS020/22040KT=



    US Dept of Commerce
    National Oceanic and Atmospheric Administration
    National Weather Service
    1325 East West Highway
    Silver Spring, MD 20910
    Page Author: NWS Internet Services Team
Disclaimer
Information Quality
Credits
Glossary
Privacy Policy
Freedom of Information Act (FOIA)
About Us
Career Opportunities